Poole, United Kingdom
Current Conditions -  °F | °C
As of 9:20 PM on Monday 24 Nov 2014 (Local Time) from EGHH Reporting Station
Clear Clear  
Wind Chill: 32°   Ceiling: Unl
Heat Index: 32°   Visibility: 4mi
Dew Point: 30°   Wind: 2mph
Humidity: 93%   Direction: 360°N
Pressure: 30.3"   Gusts: NA
Location:  50.72°N, 1.98°W
Report Text: EGHH 242120Z 36002KT 7000 NSC 00/M01 Q1026
Loading
Personal Weather Stations






























Interactive Weather Map New forecast layout! Learn more

10-Day Weather Forecast

Advertisements
Track Severe Weather on mobile